Time;durP1;ratioP1;P1;durP2;ratioP2;P2;SDS_P1;SDS_P2;PMS_P1;PMS_P2;Temp;Humidity;BMP_temperature;BMP_pressure;BME280_temperature;BME280_humidity;BME280_pressure;Samples;Min_cycle;Max_cycle;Signal;HPM_P1;HPM_P2
2022/06/28 00:02:13;;;;;;;3.03;1.02;;;;;;;;;;5070805;28;20033;-66
2022/06/28 00:04:39;;;;;;;4.60;1.30;;;;;;;;;;5072802;28;20021;-66
2022/06/28 00:07:04;;;;;;;2.83;1.30;;;;;;;;;;5078139;28;20087;-66
2022/06/28 00:09:30;;;;;;;4.53;1.10;;;;;;;;;;5074839;28;20086;-67
2022/06/28 00:11:55;;;;;;;1.58;1.25;;;;;;;;;;5072132;28;20052;-66
2022/06/28 00:17:06;;;;;;;2.50;1.20;;;;;;;;;;5056743;28;20078;-66
2022/06/28 00:19:31;;;;;;;2.58;1.40;;;;;;;;;;5073407;28;20111;-67
2022/06/28 00:21:57;;;;;;;3.45;1.20;;;;;;;;;;5067642;28;20119;-66
2022/06/28 00:24:23;;;;;;;3.50;1.35;;;;;;;;;;5068667;28;20056;-66
2022/06/28 00:26:49;;;;;;;3.25;1.30;;;;;;;;;;5067544;28;20050;-66
2022/06/28 00:29:14;;;;;;;4.55;1.20;;;;;;;;;;5068294;28;20048;-66
2022/06/28 00:31:40;;;;;;;2.25;1.40;;;;;;;;;;5066713;28;20448;-67
2022/06/28 00:34:05;;;;;;;1.80;1.10;;;;;;;;;;5071851;28;20073;-66
2022/06/28 00:36:32;;;;;;;2.50;1.10;;;;;;;;;;5069357;28;20068;-66
2022/06/28 00:38:58;;;;;;;1.65;1.30;;;;;;;;;;5073233;28;20086;-66
2022/06/28 00:41:23;;;;;;;3.72;1.42;;;;;;;;;;5073577;28;20033;-66
2022/06/28 00:43:49;;;;;;;4.68;1.40;;;;;;;;;;5074644;28;20464;-66
2022/06/28 00:46:14;;;;;;;2.75;1.23;;;;;;;;;;5078159;28;20024;-66
2022/06/28 00:48:40;;;;;;;3.33;1.23;;;;;;;;;;5073181;28;20032;-66
2022/06/28 00:51:08;;;;;;;4.20;1.50;;;;;;;;;;5057391;28;20028;-66
2022/06/28 00:53:34;;;;;;;2.22;1.30;;;;;;;;;;5068747;28;20694;-66
2022/06/28 00:55:59;;;;;;;5.38;1.63;;;;;;;;;;5064231;28;20120;-66
2022/06/28 00:58:24;;;;;;;1.95;0.98;;;;;;;;;;5066558;28;20447;-66
2022/06/28 01:00:50;;;;;;;2.15;1.00;;;;;;;;;;5068691;28;20094;-66
2022/06/28 01:03:19;;;;;;;2.85;1.20;;;;;;;;;;5057609;28;20039;-66
2022/06/28 01:05:45;;;;;;;2.70;1.17;;;;;;;;;;5075171;28;20119;-66
2022/06/28 01:08:12;;;;;;;3.33;1.10;;;;;;;;;;5057024;28;20112;-66
2022/06/28 01:10:38;;;;;;;3.10;1.20;;;;;;;;;;5067398;28;20016;-66
2022/06/28 01:13:03;;;;;;;1.80;1.10;;;;;;;;;;5056170;28;20525;-66
2022/06/28 01:15:30;;;;;;;3.17;0.90;;;;;;;;;;5074624;28;20064;-66
2022/06/28 01:17:58;;;;;;;2.20;1.48;;;;;;;;;;5069116;28;20062;-66
2022/06/28 01:20:24;;;;;;;3.40;1.00;;;;;;;;;;5068173;28;20105;-66
2022/06/28 01:22:51;;;;;;;1.10;1.00;;;;;;;;;;5065454;28;20066;-66
2022/06/28 01:25:16;;;;;;;3.38;1.00;;;;;;;;;;5061554;28;20028;-66
2022/06/28 01:27:42;;;;;;;2.08;1.00;;;;;;;;;;5062209;28;20033;-66
2022/06/28 01:30:08;;;;;;;2.47;1.17;;;;;;;;;;5052437;28;20144;-66
2022/06/28 01:32:34;;;;;;;3.58;1.20;;;;;;;;;;5060097;28;20032;-66
2022/06/28 01:35:00;;;;;;;4.43;1.45;;;;;;;;;;5056860;28;20055;-66
2022/06/28 01:37:26;;;;;;;3.05;0.98;;;;;;;;;;5066051;28;20071;-66
2022/06/28 01:39:52;;;;;;;2.92;1.02;;;;;;;;;;5076806;28;20032;-66
2022/06/28 01:42:17;;;;;;;4.95;1.10;;;;;;;;;;5088315;28;20039;-66
2022/06/28 01:44:45;;;;;;;1.35;1.00;;;;;;;;;;5088190;28;20024;-66
2022/06/28 01:47:11;;;;;;;2.25;1.00;;;;;;;;;;5088197;28;20056;-67
2022/06/28 01:49:37;;;;;;;3.47;1.80;;;;;;;;;;5063548;28;20012;-66
2022/06/28 01:52:03;;;;;;;1.63;1.00;;;;;;;;;;5060916;28;20070;-66
2022/06/28 01:54:28;;;;;;;1.25;0.90;;;;;;;;;;5066346;28;20181;-66
2022/06/28 01:56:55;;;;;;;3.75;1.27;;;;;;;;;;5069197;28;20071;-66
2022/06/28 01:59:20;;;;;;;1.77;1.20;;;;;;;;;;5068665;28;20066;-66
2022/06/28 02:01:45;;;;;;;4.55;1.20;;;;;;;;;;5051339;28;20024;-66
2022/06/28 02:04:17;;;;;;;1.75;0.98;;;;;;;;;;5066670;28;20020;-66
2022/06/28 02:06:43;;;;;;;3.85;1.20;;;;;;;;;;5066633;28;20059;-66
2022/06/28 02:09:08;;;;;;;4.00;1.27;;;;;;;;;;5074765;28;20033;-67
2022/06/28 02:11:33;;;;;;;2.22;0.90;;;;;;;;;;5064804;28;20116;-66
2022/06/28 02:13:59;;;;;;;5.20;1.52;;;;;;;;;;5066391;28;20029;-66
2022/06/28 02:16:24;;;;;;;2.40;1.00;;;;;;;;;;5066727;28;20080;-66
2022/06/28 02:18:49;;;;;;;2.22;0.88;;;;;;;;;;5065629;28;20052;-66
2022/06/28 02:21:15;;;;;;;2.33;0.95;;;;;;;;;;5077883;28;20033;-66
2022/06/28 02:23:40;;;;;;;1.60;0.95;;;;;;;;;;5066686;28;20047;-66
2022/06/28 02:26:07;;;;;;;2.33;1.30;;;;;;;;;;5054861;28;20448;-66
2022/06/28 02:28:32;;;;;;;1.80;1.00;;;;;;;;;;5068348;28;20017;-66
2022/06/28 02:30:58;;;;;;;2.28;1.00;;;;;;;;;;5068920;28;20147;-66
2022/06/28 02:33:23;;;;;;;2.47;1.23;;;;;;;;;;5066065;28;20075;-66
2022/06/28 02:41:16;;;;;;;1.52;0.90;;;;;;;;;;5085154;28;19919;-66
2022/06/28 02:43:41;;;;;;;2.00;0.85;;;;;;;;;;5090124;28;20055;-66
2022/06/28 02:46:07;;;;;;;2.75;0.98;;;;;;;;;;5073214;28;20024;-66
2022/06/28 02:48:32;;;;;;;2.58;1.00;;;;;;;;;;5069553;28;20534;-66
2022/06/28 02:50:57;;;;;;;1.83;0.80;;;;;;;;;;5071158;28;20076;-66
2022/06/28 02:53:22;;;;;;;2.33;1.10;;;;;;;;;;5070858;28;20043;-66
2022/06/28 02:55:48;;;;;;;2.42;1.25;;;;;;;;;;5070244;28;20028;-66
2022/06/28 02:58:13;;;;;;;2.67;1.00;;;;;;;;;;5065632;28;20503;-66
2022/06/28 03:00:38;;;;;;;2.53;0.90;;;;;;;;;;5070425;28;20039;-66
2022/06/28 03:03:04;;;;;;;1.40;0.80;;;;;;;;;;5070315;28;20461;-66
2022/06/28 03:05:29;;;;;;;1.48;0.85;;;;;;;;;;5063181;28;20617;-66
2022/06/28 03:07:54;;;;;;;4.88;1.00;;;;;;;;;;5066328;28;20036;-66
2022/06/28 03:10:20;;;;;;;2.67;0.85;;;;;;;;;;5069874;28;20021;-66
2022/06/28 03:12:46;;;;;;;4.30;1.10;;;;;;;;;;5069874;28;20047;-66
2022/06/28 03:15:13;;;;;;;1.33;1.10;;;;;;;;;;5067060;28;20044;-66
2022/06/28 03:17:39;;;;;;;1.10;0.80;;;;;;;;;;5068520;28;20041;-66
2022/06/28 03:20:05;;;;;;;2.08;1.00;;;;;;;;;;5075992;28;20040;-66
2022/06/28 03:22:30;;;;;;;3.22;1.15;;;;;;;;;;5068262;28;20051;-66
2022/06/28 03:24:56;;;;;;;2.45;1.10;;;;;;;;;;5058241;28;20186;-66
2022/06/28 03:27:21;;;;;;;1.40;1.30;;;;;;;;;;5069106;28;20550;-66
2022/06/28 03:29:47;;;;;;;1.63;1.00;;;;;;;;;;5068120;28;20036;-66
2022/06/28 03:32:13;;;;;;;1.45;1.00;;;;;;;;;;5053493;28;20028;-66
2022/06/28 03:34:38;;;;;;;5.65;1.08;;;;;;;;;;5073243;28;20153;-66
2022/06/28 03:37:03;;;;;;;2.35;1.10;;;;;;;;;;5067466;28;20110;-66
2022/06/28 03:39:29;;;;;;;6.43;1.15;;;;;;;;;;5069926;28;20040;-66
2022/06/28 03:41:54;;;;;;;4.20;1.02;;;;;;;;;;5068672;28;20045;-66
2022/06/28 03:44:20;;;;;;;4.68;0.90;;;;;;;;;;5069363;28;20099;-66
2022/06/28 03:46:45;;;;;;;2.13;0.90;;;;;;;;;;5070637;28;20401;-66
2022/06/28 03:49:10;;;;;;;4.07;1.20;;;;;;;;;;5069101;28;20028;-66
2022/06/28 03:51:35;;;;;;;6.10;1.20;;;;;;;;;;5070137;28;20029;-66
2022/06/28 03:54:01;;;;;;;6.07;1.27;;;;;;;;;;5068475;28;20117;-66
2022/06/28 03:56:26;;;;;;;2.65;1.20;;;;;;;;;;5064505;28;20029;-66
2022/06/28 03:58:51;;;;;;;2.25;1.13;;;;;;;;;;5073596;28;20035;-66
2022/06/28 04:01:17;;;;;;;6.57;1.17;;;;;;;;;;5070426;28;20035;-66
2022/06/28 04:03:42;;;;;;;3.75;1.30;;;;;;;;;;5068846;28;20170;-66
2022/06/28 04:06:08;;;;;;;4.13;1.30;;;;;;;;;;5068400;28;20040;-66
2022/06/28 04:08:33;;;;;;;3.60;1.23;;;;;;;;;;5077284;28;20037;-66
2022/06/28 04:11:16;;;;;;;3.08;1.20;;;;;;;;;;5062372;28;20052;-66
2022/06/28 04:13:53;;;;;;;2.50;1.45;;;;;;;;;;5069544;28;20560;-67
2022/06/28 04:16:20;;;;;;;2.25;1.30;;;;;;;;;;5069536;28;20032;-66
2022/06/28 04:18:46;;;;;;;3.63;1.33;;;;;;;;;;5070160;28;20528;-66
2022/06/28 04:21:13;;;;;;;4.05;1.65;;;;;;;;;;5076244;28;20036;-66
2022/06/28 04:23:39;;;;;;;4.90;1.10;;;;;;;;;;5064939;28;20650;-66
2022/06/28 04:26:05;;;;;;;2.55;1.23;;;;;;;;;;5059812;28;20111;-66
2022/06/28 04:28:30;;;;;;;2.85;1.00;;;;;;;;;;5063081;28;20055;-66
2022/06/28 04:30:56;;;;;;;2.70;1.25;;;;;;;;;;5068662;28;20040;-66
2022/06/28 04:33:21;;;;;;;3.97;1.20;;;;;;;;;;5069001;28;20056;-66
2022/06/28 04:35:47;;;;;;;1.85;1.30;;;;;;;;;;5066252;28;20037;-66
2022/06/28 04:38:12;;;;;;;4.38;1.20;;;;;;;;;;5068602;28;20039;-66
2022/06/28 04:40:38;;;;;;;4.32;1.20;;;;;;;;;;5068008;28;20706;-66
2022/06/28 04:43:03;;;;;;;3.75;1.38;;;;;;;;;;5068282;28;20594;-66
2022/06/28 04:45:29;;;;;;;3.17;1.20;;;;;;;;;;5068158;28;20039;-66
2022/06/28 04:47:55;;;;;;;2.35;1.30;;;;;;;;;;5067540;28;20106;-66
2022/06/28 04:50:20;;;;;;;4.47;1.20;;;;;;;;;;5068393;28;20062;-66
2022/06/28 04:52:45;;;;;;;4.50;1.38;;;;;;;;;;5067264;28;20043;-66
2022/06/28 04:55:11;;;;;;;2.63;1.00;;;;;;;;;;5069007;28;20044;-66
2022/06/28 04:57:36;;;;;;;8.15;1.38;;;;;;;;;;5069365;28;20031;-66
2022/06/28 05:00:03;;;;;;;4.13;1.20;;;;;;;;;;5067981;28;20047;-66
2022/06/28 05:02:28;;;;;;;3.25;1.20;;;;;;;;;;5067134;28;20055;-66
2022/06/28 05:04:54;;;;;;;4.90;1.27;;;;;;;;;;5067380;28;20024;-66
2022/06/28 05:07:19;;;;;;;5.82;1.60;;;;;;;;;;5071879;28;20016;-66
2022/06/28 05:09:44;;;;;;;3.47;1.15;;;;;;;;;;5071611;28;20520;-66
2022/06/28 05:12:10;;;;;;;3.50;1.30;;;;;;;;;;5067859;28;20418;-66
2022/06/28 05:14:35;;;;;;;4.20;1.20;;;;;;;;;;5068488;28;20055;-66
2022/06/28 05:17:01;;;;;;;1.45;1.08;;;;;;;;;;5068390;28;20494;-66
2022/06/28 05:19:28;;;;;;;3.90;1.00;;;;;;;;;;5074187;28;20026;-66
2022/06/28 05:21:54;;;;;;;2.97;1.33;;;;;;;;;;5066673;28;20036;-66
2022/06/28 05:24:19;;;;;;;5.60;1.33;;;;;;;;;;5067188;28;20029;-66
2022/06/28 05:26:44;;;;;;;4.30;1.50;;;;;;;;;;5065104;28;20047;-66
2022/06/28 05:29:10;;;;;;;8.00;2.28;;;;;;;;;;5065914;28;20032;-66
2022/06/28 05:31:36;;;;;;;3.20;1.45;;;;;;;;;;5069866;28;20032;-66
2022/06/28 05:34:02;;;;;;;5.97;1.27;;;;;;;;;;5063976;28;20570;-66
2022/06/28 05:36:27;;;;;;;3.75;1.40;;;;;;;;;;5057678;28;20035;-66
2022/06/28 05:38:53;;;;;;;2.63;1.60;;;;;;;;;;5068416;28;20036;-66
2022/06/28 05:41:18;;;;;;;1.15;1.02;;;;;;;;;;5068396;28;20059;-66
2022/06/28 05:43:44;;;;;;;4.63;1.17;;;;;;;;;;5065925;28;20076;-66
2022/06/28 05:46:09;;;;;;;3.67;1.33;;;;;;;;;;5067129;28;20474;-66
2022/06/28 05:48:35;;;;;;;3.10;1.27;;;;;;;;;;5067289;28;20063;-66
2022/06/28 05:51:00;;;;;;;5.47;1.20;;;;;;;;;;5065744;28;20064;-66
2022/06/28 05:53:25;;;;;;;4.88;1.67;;;;;;;;;;5075709;28;20390;-68
2022/06/28 05:55:51;;;;;;;5.00;1.38;;;;;;;;;;5062179;28;20082;-66
2022/06/28 05:58:16;;;;;;;4.05;1.40;;;;;;;;;;5066932;28;20031;-67
2022/06/28 06:00:41;;;;;;;3.58;1.40;;;;;;;;;;5066166;28;20490;-66
2022/06/28 06:03:07;;;;;;;3.55;1.58;;;;;;;;;;5060076;28;21059;-67
2022/06/28 06:05:33;;;;;;;3.55;1.20;;;;;;;;;;5058113;28;20136;-67
2022/06/28 06:07:58;;;;;;;3.92;1.45;;;;;;;;;;5062053;28;20125;-67
2022/06/28 06:10:24;;;;;;;7.32;1.13;;;;;;;;;;5065668;28;20063;-67
2022/06/28 06:12:49;;;;;;;6.80;1.42;;;;;;;;;;5064435;28;20040;-66
2022/06/28 06:15:14;;;;;;;6.78;2.17;;;;;;;;;;5063882;28;20769;-68
2022/06/28 06:17:40;;;;;;;3.85;1.15;;;;;;;;;;5063024;28;20032;-66
2022/06/28 06:20:06;;;;;;;3.13;1.25;;;;;;;;;;5071592;28;20028;-66
2022/06/28 06:22:32;;;;;;;10.63;1.52;;;;;;;;;;5066369;28;20096;-66
2022/06/28 06:24:57;;;;;;;5.97;1.40;;;;;;;;;;5065304;28;20454;-66
2022/06/28 06:27:23;;;;;;;3.92;1.20;;;;;;;;;;5066851;28;20086;-66
2022/06/28 06:29:48;;;;;;;11.38;1.08;;;;;;;;;;5068539;28;20037;-66
2022/06/28 06:32:13;;;;;;;7.60;1.40;;;;;;;;;;5066818;28;20564;-67
2022/06/28 06:34:39;;;;;;;4.13;1.33;;;;;;;;;;5056266;28;20530;-65
2022/06/28 06:37:04;;;;;;;3.33;0.90;;;;;;;;;;5070399;28;20054;-67
2022/06/28 06:39:29;;;;;;;8.13;1.20;;;;;;;;;;5075217;28;20041;-68
2022/06/28 06:41:55;;;;;;;5.53;1.30;;;;;;;;;;5064664;28;20045;-67
2022/06/28 06:44:20;;;;;;;4.55;1.98;;;;;;;;;;5061464;28;20045;-66
2022/06/28 06:46:45;;;;;;;5.65;1.45;;;;;;;;;;5065324;28;20021;-67
2022/06/28 06:49:14;;;;;;;6.20;1.33;;;;;;;;;;5065799;28;20846;-67
2022/06/28 06:51:44;;;;;;;8.32;1.48;;;;;;;;;;5063083;28;20036;-67
2022/06/28 06:54:10;;;;;;;6.22;1.20;;;;;;;;;;5063740;28;20036;-66
2022/06/28 06:56:35;;;;;;;4.07;1.17;;;;;;;;;;5055047;28;20410;-65
2022/06/28 06:59:01;;;;;;;6.72;1.55;;;;;;;;;;5054193;28;20039;-67
2022/06/28 07:01:29;;;;;;;5.90;1.13;;;;;;;;;;5060549;28;20119;-65
2022/06/28 07:03:55;;;;;;;4.18;1.30;;;;;;;;;;5061136;28;20047;-66
2022/06/28 07:06:20;;;;;;;6.15;1.40;;;;;;;;;;5060597;28;20036;-66
2022/06/28 07:08:46;;;;;;;5.30;1.45;;;;;;;;;;5062848;28;20119;-67
2022/06/28 07:11:11;;;;;;;5.60;1.30;;;;;;;;;;5062914;28;20089;-66
2022/06/28 07:13:37;;;;;;;6.22;1.10;;;;;;;;;;5063928;28;20116;-65
2022/06/28 07:16:02;;;;;;;5.13;1.27;;;;;;;;;;5059413;28;20524;-65
2022/06/28 07:18:29;;;;;;;9.35;1.70;;;;;;;;;;5061978;28;20036;-65
2022/06/28 07:20:55;;;;;;;5.30;1.05;;;;;;;;;;5059658;28;20047;-67
2022/06/28 07:23:21;;;;;;;6.05;1.00;;;;;;;;;;5065086;28;20033;-66
2022/06/28 07:25:46;;;;;;;4.43;1.10;;;;;;;;;;5058420;28;20131;-68
2022/06/28 07:28:12;;;;;;;5.80;1.05;;;;;;;;;;5058306;28;20028;-68
2022/06/28 07:30:38;;;;;;;6.60;1.25;;;;;;;;;;5076560;28;20168;-66
2022/06/28 07:33:03;;;;;;;3.78;1.02;;;;;;;;;;5069646;28;20044;-68
2022/06/28 07:35:29;;;;;;;7.68;1.23;;;;;;;;;;5067116;28;20035;-67
2022/06/28 07:37:54;;;;;;;5.00;1.13;;;;;;;;;;5064849;28;20403;-66
2022/06/28 07:40:19;;;;;;;6.22;1.20;;;;;;;;;;5055580;28;20397;-67
2022/06/28 07:42:46;;;;;;;7.18;1.35;;;;;;;;;;5065842;28;20052;-69
2022/06/28 07:45:13;;;;;;;5.65;1.63;;;;;;;;;;5066976;28;20032;-68
2022/06/28 07:47:38;;;;;;;6.57;1.40;;;;;;;;;;5057968;28;20123;-69
2022/06/28 07:52:48;;;;;;;8.80;2.15;;;;;;;;;;5052708;28;20039;-68
2022/06/28 07:55:13;;;;;;;4.05;1.80;;;;;;;;;;5065573;28;20025;-69
2022/06/28 07:57:39;;;;;;;6.97;1.20;;;;;;;;;;5063735;28;20043;-68
2022/06/28 08:00:05;;;;;;;2.90;0.90;;;;;;;;;;5066237;28;20045;-69
2022/06/28 08:02:31;;;;;;;5.10;1.30;;;;;;;;;;5064372;28;20064;-70
2022/06/28 08:04:56;;;;;;;7.07;0.90;;;;;;;;;;5074755;28;20062;-70
2022/06/28 08:07:22;;;;;;;5.85;0.98;;;;;;;;;;5079240;28;20024;-70
2022/06/28 08:09:48;;;;;;;8.55;4.07;;;;;;;;;;5063936;28;20101;-71
2022/06/28 08:12:14;;;;;;;6.53;2.45;;;;;;;;;;5064812;28;20055;-69
2022/06/28 08:14:39;;;;;;;9.70;3.50;;;;;;;;;;5062745;28;20429;-70
2022/06/28 08:17:05;;;;;;;13.80;4.85;;;;;;;;;;5062021;28;20039;-69
2022/06/28 08:19:31;;;;;;;11.18;5.20;;;;;;;;;;5070646;28;20020;-68
2022/06/28 08:21:56;;;;;;;10.18;3.88;;;;;;;;;;5065425;28;20509;-70
2022/06/28 08:24:21;;;;;;;7.30;3.28;;;;;;;;;;5062252;28;20059;-71
2022/06/28 08:26:47;;;;;;;9.35;3.00;;;;;;;;;;5064073;28;20039;-69
2022/06/28 08:29:14;;;;;;;7.82;2.72;;;;;;;;;;5055962;28;20045;-69
2022/06/28 08:31:39;;;;;;;5.72;2.33;;;;;;;;;;5052602;28;20028;-68
2022/06/28 08:34:05;;;;;;;4.70;1.70;;;;;;;;;;5052306;28;20040;-70
2022/06/28 08:36:31;;;;;;;4.57;1.52;;;;;;;;;;5052433;28;20040;-69
2022/06/28 08:38:56;;;;;;;4.95;1.30;;;;;;;;;;5047876;28;20365;-69
2022/06/28 08:41:24;;;;;;;5.00;1.30;;;;;;;;;;5051752;28;20052;-70
2022/06/28 08:43:49;;;;;;;3.30;1.48;;;;;;;;;;5058534;28;20074;-70
2022/06/28 08:46:15;;;;;;;5.32;2.25;;;;;;;;;;5061956;28;20461;-70
2022/06/28 08:48:43;;;;;;;2.67;1.20;;;;;;;;;;5060391;28;20156;-69
2022/06/28 08:51:10;;;;;;;4.78;1.30;;;;;;;;;;5055562;28;20510;-70
2022/06/28 08:53:38;;;;;;;4.53;1.10;;;;;;;;;;5057273;28;20464;-64
2022/06/28 08:56:08;;;;;;;4.13;1.00;;;;;;;;;;5060262;28;20063;-66
2022/06/28 08:58:35;;;;;;;6.97;0.90;;;;;;;;;;5063149;28;20104;-66
2022/06/28 09:01:02;;;;;;;6.78;1.30;;;;;;;;;;5064035;28;20444;-67
2022/06/28 09:03:31;;;;;;;5.18;1.25;;;;;;;;;;5056512;28;20061;-66
2022/06/28 09:05:58;;;;;;;3.70;1.33;;;;;;;;;;5057146;28;20093;-66
2022/06/28 09:08:25;;;;;;;3.08;1.10;;;;;;;;;;5064595;28;20535;-66
2022/06/28 09:10:52;;;;;;;3.95;1.05;;;;;;;;;;5058007;28;20020;-65
2022/06/28 09:13:21;;;;;;;2.17;0.80;;;;;;;;;;5065152;28;20024;-65
2022/06/28 09:16:01;;;;;;;4.05;1.05;;;;;;;;;;5064976;28;20044;-67
2022/06/28 09:18:43;;;;;;;3.22;1.10;;;;;;;;;;5062594;28;20036;-67
2022/06/28 09:21:11;;;;;;;2.95;1.00;;;;;;;;;;5072607;28;20032;-67
2022/06/28 09:23:39;;;;;;;2.83;1.10;;;;;;;;;;5062789;28;20024;-67
2022/06/28 09:26:10;;;;;;;1.73;1.23;;;;;;;;;;5064034;28;20487;-67
2022/06/28 09:28:40;;;;;;;5.15;1.40;;;;;;;;;;5058592;28;20062;-66
2022/06/28 09:31:22;;;;;;;3.05;1.30;;;;;;;;;;5062737;28;20075;-64
2022/06/28 09:34:02;;;;;;;5.20;1.30;;;;;;;;;;5060738;28;20040;-65
2022/06/28 09:36:29;;;;;;;5.35;1.17;;;;;;;;;;5047566;28;20037;-65
2022/06/28 09:38:56;;;;;;;6.10;1.60;;;;;;;;;;5047000;28;20037;-67
2022/06/28 09:41:24;;;;;;;2.33;0.98;;;;;;;;;;5051095;28;20434;-67
2022/06/28 09:43:59;;;;;;;4.07;1.60;;;;;;;;;;5060590;28;20051;-66
2022/06/28 09:46:30;;;;;;;4.20;1.23;;;;;;;;;;5058471;28;20021;-66
2022/06/28 09:48:57;;;;;;;2.80;1.40;;;;;;;;;;5060852;28;20036;-65
2022/06/28 09:51:24;;;;;;;3.97;1.08;;;;;;;;;;5067190;28;20029;-66
2022/06/28 09:53:55;;;;;;;3.10;1.15;;;;;;;;;;5083901;28;20031;-66
2022/06/28 09:56:23;;;;;;;5.85;1.27;;;;;;;;;;5065909;28;20047;-67
2022/06/28 09:58:49;;;;;;;1.55;1.10;;;;;;;;;;5064303;28;20056;-65
2022/06/28 10:01:15;;;;;;;5.72;1.83;;;;;;;;;;5064575;28;20067;-66
2022/06/28 10:03:41;;;;;;;5.82;1.23;;;;;;;;;;5058813;28;20035;-66
2022/06/28 10:06:07;;;;;;;2.50;1.08;;;;;;;;;;5064989;28;20036;-66
2022/06/28 10:08:33;;;;;;;2.47;1.20;;;;;;;;;;5065011;28;20028;-68
2022/06/28 10:10:59;;;;;;;1.95;1.23;;;;;;;;;;5062164;28;20405;-67
2022/06/28 10:16:27;;;;;;;4.85;1.30;;;;;;;;;;5072680;28;20043;-66
2022/06/28 10:18:54;;;;;;;3.85;1.08;;;;;;;;;;5060432;28;20528;-66
2022/06/28 10:21:54;;;;;;;3.38;1.17;;;;;;;;;;5070340;28;20548;-66
2022/06/28 10:24:20;;;;;;;3.22;1.38;;;;;;;;;;5052404;28;20041;-66
2022/06/28 10:27:11;;;;;;;4.18;1.30;;;;;;;;;;5053533;28;20055;-66
2022/06/28 10:29:59;;;;;;;3.00;1.20;;;;;;;;;;5055984;28;20048;-68
2022/06/28 10:32:44;;;;;;;2.15;1.25;;;;;;;;;;5064857;28;20021;-67
2022/06/28 10:35:10;;;;;;;4.05;1.20;;;;;;;;;;5064057;28;20540;-67
2022/06/28 10:37:35;;;;;;;2.42;1.40;;;;;;;;;;5065772;28;20043;-67
2022/06/28 10:40:23;;;;;;;2.22;1.10;;;;;;;;;;5063784;28;20058;-67
2022/06/28 10:42:50;;;;;;;4.47;1.30;;;;;;;;;;5061303;28;20489;-67
2022/06/28 10:45:16;;;;;;;4.82;1.30;;;;;;;;;;5062401;28;20064;-67
2022/06/28 10:48:08;;;;;;;4.70;1.40;;;;;;;;;;5063183;28;20155;-67
2022/06/28 10:50:59;;;;;;;3.67;1.70;;;;;;;;;;5059100;28;20032;-67
2022/06/28 10:53:32;;;;;;;3.65;1.38;;;;;;;;;;5065184;28;20029;-67
2022/06/28 10:56:16;;;;;;;;;;;;;;;;;;5073349;28;20082;-67
2022/06/28 10:58:54;;;;;;;;;;;;;;;;;;5066600;28;19952;-67
2022/06/28 11:01:39;;;;;;;4.07;1.50;;;;;;;;;;5062575;28;19938;-67
2022/06/28 11:04:24;;;;;;;3.30;1.50;;;;;;;;;;5064390;28;20488;-67
2022/06/28 11:07:11;;;;;;;2.03;1.40;;;;;;;;;;5065650;28;20532;-67
2022/06/28 11:10:03;;;;;;;3.38;1.30;;;;;;;;;;5073530;28;20526;-67
2022/06/28 11:12:28;;;;;;;4.43;1.50;;;;;;;;;;5077038;28;20078;-67
2022/06/28 11:15:05;;;;;;;4.53;1.60;;;;;;;;;;5065711;28;20037;-67
2022/06/28 11:17:32;;;;;;;3.17;1.40;;;;;;;;;;5070036;28;20058;-67
2022/06/28 11:20:02;;;;;;;3.85;1.40;;;;;;;;;;5064615;28;20439;-67
2022/06/28 11:22:30;;;;;;;5.18;1.80;;;;;;;;;;5057679;28;20023;-66
2022/06/28 11:24:58;;;;;;;1.75;1.30;;;;;;;;;;5061601;28;20095;-66
2022/06/28 11:27:24;;;;;;;2.83;1.40;;;;;;;;;;5037382;28;20037;-66
2022/06/28 11:29:54;;;;;;;1.83;1.40;;;;;;;;;;5060775;28;20032;-67
2022/06/28 11:32:21;;;;;;;2.17;1.40;;;;;;;;;;5064907;28;20036;-66
2022/06/28 11:34:58;;;;;;;4.38;1.55;;;;;;;;;;5061759;28;20028;-66
2022/06/28 11:37:24;;;;;;;3.55;1.58;;;;;;;;;;5065181;28;20119;-66
2022/06/28 11:39:52;;;;;;;1.60;1.40;;;;;;;;;;5067130;28;20090;-66
2022/06/28 11:42:17;;;;;;;3.38;1.42;;;;;;;;;;5053782;28;20121;-66
2022/06/28 11:44:43;;;;;;;2.38;1.40;;;;;;;;;;5065887;28;20078;-66
2022/06/28 11:47:09;;;;;;;5.40;1.80;;;;;;;;;;5058639;28;20434;-66
2022/06/28 11:49:35;;;;;;;2.55;1.20;;;;;;;;;;5061673;28;20032;-66
2022/06/28 11:52:01;;;;;;;2.72;1.40;;;;;;;;;;5063456;28;20044;-66
2022/06/28 11:54:27;;;;;;;2.67;1.42;;;;;;;;;;5066774;28;20559;-66
2022/06/28 11:56:53;;;;;;;2.92;1.40;;;;;;;;;;5064772;28;20028;-66
2022/06/28 11:59:19;;;;;;;2.75;1.35;;;;;;;;;;5068778;28;20027;-65
2022/06/28 12:01:45;;;;;;;2.05;1.52;;;;;;;;;;5062215;28;20024;-66
2022/06/28 12:04:10;;;;;;;4.15;1.60;;;;;;;;;;5067674;28;20036;-66
2022/06/28 12:06:42;;;;;;;2.88;1.40;;;;;;;;;;5080009;28;20501;-64
2022/06/28 12:09:10;;;;;;;2.08;1.30;;;;;;;;;;5059917;28;20037;-68
2022/06/28 12:11:40;;;;;;;3.42;1.58;;;;;;;;;;5072047;28;20039;-66
2022/06/28 12:14:09;;;;;;;2.35;1.48;;;;;;;;;;5084788;28;20028;-66
2022/06/28 12:16:34;;;;;;;3.08;1.45;;;;;;;;;;5068061;28;20579;-67
2022/06/28 12:19:02;;;;;;;3.13;1.60;;;;;;;;;;5081998;28;20036;-68
2022/06/28 12:21:28;;;;;;;2.67;1.60;;;;;;;;;;5064612;28;20075;-67
2022/06/28 12:23:55;;;;;;;4.43;1.60;;;;;;;;;;5065873;28;20154;-67
2022/06/28 12:26:35;;;;;;;3.00;1.40;;;;;;;;;;5065794;28;20548;-67
2022/06/28 12:29:01;;;;;;;2.10;1.65;;;;;;;;;;5065044;28;20478;-68
2022/06/28 12:31:26;;;;;;;4.05;1.90;;;;;;;;;;5066885;28;20085;-67
2022/06/28 12:33:52;;;;;;;3.22;1.45;;;;;;;;;;5068180;28;20078;-67
2022/06/28 12:36:17;;;;;;;2.08;1.33;;;;;;;;;;5064992;28;20043;-67
2022/06/28 12:38:42;;;;;;;3.58;1.52;;;;;;;;;;5065294;28;20033;-68
2022/06/28 12:41:08;;;;;;;4.07;2.05;;;;;;;;;;5070968;28;20051;-68
2022/06/28 12:43:33;;;;;;;2.80;1.60;;;;;;;;;;5065374;28;20048;-67
2022/06/28 12:45:58;;;;;;;4.32;1.73;;;;;;;;;;5062831;28;20127;-68
2022/06/28 12:48:24;;;;;;;7.05;1.70;;;;;;;;;;5064204;28;20609;-68
2022/06/28 12:50:49;;;;;;;5.07;1.67;;;;;;;;;;5064699;28;20089;-68
2022/06/28 12:53:14;;;;;;;3.03;1.40;;;;;;;;;;5067662;28;20028;-68
2022/06/28 12:55:40;;;;;;;2.60;1.63;;;;;;;;;;5072423;28;20078;-67
2022/06/28 12:58:05;;;;;;;3.42;1.58;;;;;;;;;;5071883;28;20041;-67
2022/06/28 13:00:31;;;;;;;2.25;1.40;;;;;;;;;;5067961;28;20037;-67
2022/06/28 13:02:56;;;;;;;2.25;1.50;;;;;;;;;;5064429;28;20036;-67
2022/06/28 13:05:23;;;;;;;3.00;1.40;;;;;;;;;;5065940;28;20024;-68
2022/06/28 13:07:48;;;;;;;2.55;1.55;;;;;;;;;;5069439;28;20043;-66
2022/06/28 13:10:13;;;;;;;9.52;2.00;;;;;;;;;;5064186;28;20447;-67
2022/06/28 13:12:39;;;;;;;3.30;1.88;;;;;;;;;;5058641;28;20040;-66
2022/06/28 13:15:05;;;;;;;4.60;1.90;;;;;;;;;;5056272;28;20093;-66
2022/06/28 13:17:30;;;;;;;3.72;1.60;;;;;;;;;;5066376;28;20086;-68
2022/06/28 13:19:56;;;;;;;4.07;1.70;;;;;;;;;;5072873;28;20476;-67
2022/06/28 13:22:21;;;;;;;2.97;1.80;;;;;;;;;;5062999;28;20036;-67
2022/06/28 13:24:47;;;;;;;3.92;1.58;;;;;;;;;;5057848;28;20033;-67
2022/06/28 13:27:12;;;;;;;3.28;1.52;;;;;;;;;;5062000;28;20331;-66
2022/06/28 13:29:37;;;;;;;1.70;1.42;;;;;;;;;;5062827;28;20035;-67
2022/06/28 13:32:03;;;;;;;3.40;1.38;;;;;;;;;;5058327;28;20075;-68
2022/06/28 13:34:29;;;;;;;3.85;2.25;;;;;;;;;;5061549;28;20867;-67
2022/06/28 13:36:55;;;;;;;2.40;1.73;;;;;;;;;;5062500;28;20028;-69
2022/06/28 13:39:21;;;;;;;5.25;1.63;;;;;;;;;;5054095;28;20119;-69
2022/06/28 13:41:46;;;;;;;1.45;1.35;;;;;;;;;;5064007;28;20769;-69
2022/06/28 13:44:16;;;;;;;2.33;1.58;;;;;;;;;;5054870;28;20683;-69
2022/06/28 13:46:41;;;;;;;3.80;1.83;;;;;;;;;;5027077;28;20067;-69
2022/06/28 13:49:06;;;;;;;2.95;1.42;;;;;;;;;;5039687;28;20119;-67
2022/06/28 13:51:32;;;;;;;1.98;1.40;;;;;;;;;;5042063;28;20084;-67
2022/06/28 13:53:58;;;;;;;2.92;1.40;;;;;;;;;;5032895;28;20035;-68
2022/06/28 13:56:24;;;;;;;2.10;1.83;;;;;;;;;;5031840;28;20060;-68
2022/06/28 13:58:50;;;;;;;1.58;1.13;;;;;;;;;;5043649;28;20431;-68
2022/06/28 14:01:15;;;;;;;4.22;1.40;;;;;;;;;;5042612;28;20212;-68
2022/06/28 14:03:40;;;;;;;3.28;1.50;;;;;;;;;;5039638;28;20885;-67
2022/06/28 14:06:06;;;;;;;3.95;1.50;;;;;;;;;;5027234;28;20033;-68
2022/06/28 14:08:31;;;;;;;1.67;1.27;;;;;;;;;;5039140;28;20021;-68
2022/06/28 14:10:56;;;;;;;2.10;1.40;;;;;;;;;;5027528;28;20040;-68
2022/06/28 14:13:22;;;;;;;3.33;1.40;;;;;;;;;;5043768;28;20048;-68
2022/06/28 14:15:50;;;;;;;1.70;1.33;;;;;;;;;;5057001;28;20444;-68
2022/06/28 14:18:15;;;;;;;1.50;1.40;;;;;;;;;;5058152;28;20174;-68
2022/06/28 14:20:41;;;;;;;2.70;1.58;;;;;;;;;;5033560;28;20135;-68
2022/06/28 14:23:06;;;;;;;2.13;1.50;;;;;;;;;;5058345;28;20029;-67
2022/06/28 14:25:32;;;;;;;3.28;1.50;;;;;;;;;;5053564;28;20037;-67
2022/06/28 14:27:57;;;;;;;6.25;2.30;;;;;;;;;;5061970;28;20037;-69
2022/06/28 14:30:23;;;;;;;4.07;1.98;;;;;;;;;;5046301;28;20045;-67
2022/06/28 14:32:48;;;;;;;4.30;1.45;;;;;;;;;;5032861;28;20037;-68
2022/06/28 14:35:14;;;;;;;4.22;1.60;;;;;;;;;;5032469;28;20024;-67
2022/06/28 14:37:39;;;;;;;4.95;1.42;;;;;;;;;;5043412;28;20009;-68
2022/06/28 14:40:05;;;;;;;3.13;1.67;;;;;;;;;;5048171;28;20033;-67
2022/06/28 14:42:31;;;;;;;2.42;1.52;;;;;;;;;;5045180;28;20076;-69
2022/06/28 14:44:56;;;;;;;2.03;1.35;;;;;;;;;;5047903;28;20538;-68
2022/06/28 14:47:22;;;;;;;5.43;1.40;;;;;;;;;;5035316;28;20029;-68
2022/06/28 14:49:47;;;;;;;1.45;1.30;;;;;;;;;;5038024;28;20021;-69
2022/06/28 14:52:12;;;;;;;2.17;1.40;;;;;;;;;;5042970;28;20541;-68
2022/06/28 14:54:38;;;;;;;2.53;1.40;;;;;;;;;;5037292;28;20038;-68
2022/06/28 14:57:04;;;;;;;5.30;1.50;;;;;;;;;;5033894;28;20028;-68